createdAt,value
2022-08-22T00:00:25.938Z,-20505.13
2022-08-22T00:02:55.669Z,-20495.25
2022-08-22T00:02:58.605Z,-20547.94
2022-08-22T00:05:56.257Z,-20504.81
2022-08-22T00:08:32.306Z,-20507.53
2022-08-22T00:11:08.874Z,-20507.38
2022-08-22T00:13:44.017Z,-20508.00
2022-08-22T00:16:19.094Z,-20507.53
2022-08-22T00:18:56.857Z,-20509.22
2022-08-22T00:21:31.723Z,-20505.72
2022-08-22T00:24:17.334Z,-20500.41
2022-08-22T00:26:52.410Z,-20492.66
2022-08-22T00:29:25.102Z,-20489.31
2022-08-22T00:32:01.721Z,-20485.34
2022-08-22T00:34:35.369Z,-20481.56
2022-08-22T00:37:08.761Z,-20480.03
2022-08-22T00:39:45.775Z,-20483.69
2022-08-22T00:42:32.008Z,-20482.00
2022-08-22T00:45:33.322Z,-20483.22
2022-08-22T00:48:28.474Z,-20479.56
2022-08-22T00:51:11.310Z,-20481.41
2022-08-22T00:53:50.281Z,-20479.28
2022-08-22T00:56:50.776Z,-20479.88
2022-08-22T00:59:42.830Z,-20477.16
2022-08-22T01:02:23.394Z,-20473.81
2022-08-22T01:05:11.315Z,-20473.50
2022-08-22T01:07:57.282Z,-20473.66
2022-08-22T01:10:42.601Z,-20475.03
2022-08-22T01:13:37.246Z,-20476.84
2022-08-22T01:16:33.261Z,-20474.72
2022-08-22T01:19:19.431Z,-20473.50
2022-08-22T01:22:17.445Z,-20470.75
2022-08-22T01:25:27.119Z,-20471.38
2022-08-22T01:28:27.340Z,-20472.28
2022-08-22T01:31:36.236Z,-20466.81
2022-08-22T01:34:32.431Z,-20464.69
2022-08-22T01:37:43.858Z,-20465.59
2022-08-22T01:40:53.731Z,-20464.06
2022-08-22T01:44:00.019Z,-20461.63
2022-08-22T01:46:34.775Z,-20457.38
2022-08-22T01:49:12.623Z,-20454.63
2022-08-22T01:51:50.253Z,-20454.03
2022-08-22T01:54:32.053Z,-20450.38
2022-08-22T01:57:03.170Z,-20449.47
2022-08-22T01:59:42.440Z,-20448.25
2022-08-22T02:02:29.601Z,-20447.34
2022-08-22T02:05:07.714Z,-20444.91
2022-08-22T02:07:49.166Z,-20448.84
2022-08-22T02:10:23.785Z,-20447.66
2022-08-22T02:13:02.883Z,-20447.78
2022-08-22T02:15:45.990Z,-20446.13
2022-08-22T02:18:21.822Z,-20443.06
2022-08-22T02:21:05.048Z,-20444.28
2022-08-22T02:23:45.495Z,-20445.66
2022-08-22T02:26:18.445Z,-20442.63
2022-08-22T02:28:57.898Z,-20442.47
2022-08-22T02:31:38.050Z,-20440.03
2022-08-22T02:34:25.522Z,-20437.91
2022-08-22T02:37:03.563Z,-20434.09
2022-08-22T02:39:37.745Z,-20433.63
2022-08-22T02:42:18.595Z,-20429.38
2022-08-22T02:44:57.732Z,-20429.06
2022-08-22T02:47:33.699Z,-20428.16
2022-08-22T02:50:12.693Z,-20428.91
2022-08-22T02:52:54.020Z,-20429.38
2022-08-22T02:55:37.174Z,-20426.03
2022-08-22T02:58:16.915Z,-20429.97
2022-08-22T03:00:49.690Z,-20425.72
2022-08-22T03:03:22.222Z,-20425.72
2022-08-22T03:06:01.111Z,-20423.88
2022-08-22T03:08:34.017Z,-20417.50
2022-08-22T03:11:18.725Z,-20415.38
2022-08-22T03:13:56.667Z,-20415.97
2022-08-22T03:16:32.055Z,-20417.66
2022-08-22T03:19:05.501Z,-20417.81
2022-08-22T03:21:37.801Z,-20413.84
2022-08-22T03:24:14.496Z,-20412.94
2022-08-22T03:26:50.328Z,-20413.53
2022-08-22T03:29:22.688Z,-20409.59
2022-08-22T03:32:16.324Z,-20411.72
2022-08-22T03:35:01.929Z,-20410.97
2022-08-22T03:37:39.359Z,-20408.34
2022-08-22T03:40:31.500Z,-20405.31
2022-08-22T03:43:18.492Z,-20403.63
2022-08-22T03:46:13.398Z,-20403.78
2022-08-22T03:49:08.296Z,-20407.16
2022-08-22T03:51:55.547Z,-20402.88
2022-08-22T03:54:51.566Z,-20403.50
2022-08-22T03:58:15.885Z,-20404.72
2022-08-22T04:01:20.627Z,-20404.25
2022-08-22T04:04:34.363Z,-20407.75
2022-08-22T04:07:32.160Z,-20408.34
2022-08-22T04:10:33.522Z,-20410.19
2022-08-22T04:13:37.487Z,-20409.88
2022-08-22T04:16:20.446Z,-20409.88
2022-08-22T04:19:16.354Z,-20409.28
2022-08-22T04:22:12.086Z,-20407.31
2022-08-22T04:24:52.743Z,-20407.91
2022-08-22T04:27:25.636Z,-20405.94
2022-08-22T04:29:59.654Z,-20404.25
2022-08-22T04:32:34.231Z,-20403.50
2022-08-22T04:35:07.130Z,-20400.91
2022-08-22T04:37:41.558Z,-20403.34
2022-08-22T04:40:16.585Z,-20401.97
2022-08-22T04:42:50.879Z,-20400.13
2022-08-22T04:45:24.067Z,-20399.69
2022-08-22T04:48:00.601Z,-20397.38
2022-08-22T04:50:32.795Z,-20396.31
2022-08-22T04:53:30.022Z,-20399.84
2022-08-22T04:56:07.616Z,-20399.53
2022-08-22T04:58:44.390Z,-20403.34
2022-08-22T05:01:17.482Z,-20403.94
2022-08-22T05:03:57.253Z,-20401.66
2022-08-22T05:06:30.153Z,-20401.66
2022-08-22T05:09:01.973Z,-20401.34
2022-08-22T05:11:31.854Z,-20402.56
2022-08-22T05:14:04.532Z,-20408.66
2022-08-22T05:16:36.935Z,-20412.16
2022-08-22T05:19:15.698Z,-20413.53
2022-08-22T05:21:45.698Z,-20419.63
2022-08-22T05:24:21.114Z,-20419.31
2022-08-22T05:26:52.260Z,-20419.19
2022-08-22T05:29:23.562Z,-20421.75
2022-08-22T05:31:54.605Z,-20421.59
2022-08-22T05:34:25.781Z,-20425.56
2022-08-22T05:36:56.999Z,-20426.63
2022-08-22T05:39:27.905Z,-20427.53
2022-08-22T05:41:58.116Z,-20430.91
2022-08-22T05:44:28.782Z,-20430.13
2022-08-22T05:47:02.781Z,-20437.28
2022-08-22T05:49:39.675Z,-20443.38
2022-08-22T05:52:22.821Z,-20446.28
2022-08-22T05:54:56.286Z,-20453.72
2022-08-22T05:57:28.945Z,-20459.81
2022-08-22T06:00:03.052Z,-20463.31
2022-08-22T06:02:49.544Z,-20463.16
2022-08-22T06:05:25.666Z,-20463.31
2022-08-22T06:07:59.309Z,-20474.72
2022-08-22T06:10:32.104Z,-20478.81
2022-08-22T06:13:04.183Z,-20478.66
2022-08-22T06:15:46.213Z,-20482.91
2022-08-22T06:18:22.005Z,-20501.00
2022-08-22T06:20:56.382Z,-20507.53
2022-08-22T06:23:29.387Z,-20509.97
2022-08-22T06:26:00.951Z,-20519.84
2022-08-22T06:28:34.890Z,-20532.59
2022-08-22T06:31:04.188Z,-20535.19
2022-08-22T06:33:37.255Z,-20531.53
2022-08-22T06:36:29.338Z,-20538.66
2022-08-22T06:39:06.743Z,-20545.50
2022-08-22T06:41:40.402Z,-20560.66
2022-08-22T06:44:09.088Z,-20576.44
2022-08-22T06:46:38.857Z,-20590.53
2022-08-22T06:49:09.310Z,-20621.44
2022-08-22T06:51:39.843Z,-20634.59
2022-08-22T06:54:15.673Z,-20658.81
2022-08-22T06:56:47.530Z,-20669.53
2022-08-22T06:59:18.445Z,-20649.44
2022-08-22T07:01:52.152Z,-20645.50
2022-08-22T07:04:25.899Z,-20656.09
2022-08-22T07:06:57.592Z,-20648.97
2022-08-22T07:09:28.748Z,-20650.03
2022-08-22T07:12:00.967Z,-20667.56
2022-08-22T07:14:32.891Z,-20705.03
2022-08-22T07:17:03.534Z,-20718.03
2022-08-22T07:19:35.151Z,-20743.66
2022-08-22T07:22:13.715Z,-20727.69
2022-08-22T07:24:47.186Z,-20759.66
2022-08-22T07:27:26.894Z,-20760.56
2022-08-22T07:30:04.026Z,-20755.44
2022-08-22T07:32:42.068Z,-20765.97
2022-08-22T07:35:12.785Z,-20777.13
2022-08-22T07:37:58.245Z,-20769.00
2022-08-22T07:40:32.873Z,-20785.13
2022-08-22T07:43:09.394Z,-20802.72
2022-08-22T07:45:41.548Z,-20825.88
2022-08-22T07:48:25.380Z,-20810.09
2022-08-22T07:51:03.837Z,-20792.03
2022-08-22T07:53:39.870Z,-20786.75
2022-08-22T07:56:10.966Z,-20805.72
2022-08-22T07:58:41.898Z,-20801.81
2022-08-22T08:01:12.272Z,-20802.41
2022-08-22T08:03:40.353Z,-20812.81
2022-08-22T08:06:10.440Z,-20808.75
2022-08-22T08:08:43.054Z,-20818.81
2022-08-22T08:11:14.585Z,-20805.28
2022-08-22T08:13:46.094Z,-20824.69
2022-08-22T08:16:19.287Z,-20804.06
2022-08-22T08:18:49.951Z,-20790.06
2022-08-22T08:21:28.549Z,-20765.06
2022-08-22T08:23:58.415Z,-20750.47
2022-08-22T08:26:32.183Z,-20763.88
2022-08-22T08:28:59.794Z,-20785.72
2022-08-22T08:31:31.853Z,-20793.69
2022-08-22T08:34:05.101Z,-20806.63
2022-08-22T08:36:40.426Z,-20798.34
2022-08-22T08:39:20.435Z,-20813.56
2022-08-22T08:42:11.854Z,-20821.38
2022-08-22T08:45:11.555Z,-20824.69
2022-08-22T08:48:08.819Z,-20840.00
2022-08-22T08:50:50.450Z,-20839.28
2022-08-22T08:53:53.901Z,-20851.44
2022-08-22T08:56:31.041Z,-20833.72
2022-08-22T08:59:09.973Z,-20821.53
2022-08-22T09:02:05.376Z,-20803.94
2022-08-22T09:04:56.633Z,-20828.91
2022-08-22T09:07:55.986Z,-20834.16
2022-08-22T09:10:40.415Z,-20842.28
2022-08-22T09:19:56.567Z,-20871.56
2022-08-22T09:22:50.880Z,-20882.22
2022-08-22T09:25:24.792Z,-20870.06
2022-08-22T09:28:00.870Z,-20867.34
2022-08-22T09:30:46.001Z,-20873.66
2022-08-22T09:33:30.486Z,-20862.25
2022-08-22T09:36:05.333Z,-20878.78
2022-08-22T09:38:46.676Z,-20869.16
2022-08-22T09:40:15.454Z,-20852.63
2022-08-22T09:41:29.327Z,-20870.50
2022-08-22T09:44:09.415Z,-20868.41
2022-08-22T09:46:55.175Z,-20869.75
2022-08-22T09:49:34.749Z,-20872.75
2022-08-22T09:52:15.240Z,-20895.56
2022-08-22T09:54:48.950Z,-20889.56
2022-08-22T09:57:27.371Z,-20895.28
2022-08-22T10:00:17.934Z,-20898.28
2022-08-22T10:03:06.813Z,-20900.22
2022-08-22T10:05:44.978Z,-20908.47
2022-08-22T10:08:30.250Z,-20905.91
2022-08-22T10:11:11.273Z,-20906.38
2022-08-22T10:13:57.362Z,-20895.41
2022-08-22T10:16:56.805Z,-20911.91
2022-08-22T10:19:29.655Z,-20926.16
2022-08-22T10:22:24.322Z,-20939.19
2022-08-22T10:25:08.405Z,-20939.63
2022-08-22T10:27:55.791Z,-20933.34
2022-08-22T10:30:26.674Z,-20941.88
2022-08-22T10:33:01.679Z,-20914.75
2022-08-22T10:35:33.992Z,-20938.13
2022-08-22T10:38:05.679Z,-20943.22
2022-08-22T10:40:37.851Z,-20961.03
2022-08-22T10:43:09.452Z,-20954.00
2022-08-22T10:45:38.898Z,-20919.56
2022-08-22T10:48:32.993Z,-20954.91
2022-08-22T10:51:13.122Z,-20959.84
2022-08-22T10:53:56.832Z,-20961.34
2022-08-22T10:56:31.159Z,-20960.00
2022-08-22T10:59:12.281Z,-20963.88
2022-08-22T11:02:02.872Z,-20966.25
2022-08-22T11:04:50.070Z,-20958.03
2022-08-22T11:07:44.562Z,-20955.78
2022-08-22T11:10:27.856Z,-20955.19
2022-08-22T11:13:13.897Z,-20963.13
2022-08-22T11:16:00.042Z,-20993.78
2022-08-22T11:19:01.811Z,-20993.31
2022-08-22T11:21:46.847Z,-20981.06
2022-08-22T11:24:55.875Z,-20974.78
2022-08-22T11:27:38.222Z,-20960.59
2022-08-22T11:30:11.298Z,-20977.03
2022-08-22T11:33:13.791Z,-20978.81
2022-08-22T11:35:49.577Z,-20958.50
2022-08-22T11:38:32.690Z,-20959.69
2022-08-22T11:41:09.425Z,-20956.09
2022-08-22T11:43:51.770Z,-20929.91
2022-08-22T11:46:25.667Z,-20946.66
2022-08-22T11:49:08.997Z,-20941.72
2022-08-22T11:51:59.756Z,-20955.34
2022-08-22T11:54:37.670Z,-20959.69
2022-08-22T11:57:14.980Z,-20959.69
2022-08-22T12:00:05.036Z,-20951.91
2022-08-22T12:02:45.019Z,-20943.22
2022-08-22T12:05:26.347Z,-20955.34
2022-08-22T12:07:57.989Z,-20960.59
2022-08-22T12:10:33.201Z,-20947.41
2022-08-22T12:13:08.005Z,-20959.09
2022-08-22T12:15:44.686Z,-20959.53
2022-08-22T12:18:26.867Z,-20940.53
2022-08-22T12:21:21.449Z,-20960.72
2022-08-22T12:24:11.244Z,-20967.16
2022-08-22T12:26:57.035Z,-20976.75
2022-08-22T12:29:39.828Z,-20990.19
2022-08-22T12:32:44.081Z,-20960.00
2022-08-22T12:35:30.603Z,-20969.69
2022-08-22T12:38:28.870Z,-20982.41
2022-08-22T12:41:28.407Z,-20983.00
2022-08-22T12:44:19.263Z,-20991.22
2022-08-22T12:47:04.334Z,-20994.38
2022-08-22T12:49:50.024Z,-20982.41
2022-08-22T12:52:33.216Z,-21003.19
2022-08-22T12:55:24.934Z,-20954.91
2022-08-22T12:58:03.007Z,-20964.16
2022-08-22T13:00:35.632Z,-20938.72
2022-08-22T13:03:11.129Z,-20969.41
2022-08-22T13:05:45.584Z,-20965.66
2022-08-22T13:08:30.052Z,-20976.00
2022-08-22T13:11:02.240Z,-20983.31
2022-08-22T13:13:38.677Z,-20960.13
2022-08-22T13:16:11.589Z,-20968.66
2022-08-22T13:18:53.481Z,-20972.25
2022-08-22T13:21:26.189Z,-20974.03
2022-08-22T13:24:04.913Z,-20972.25
2022-08-22T13:26:45.790Z,-20968.06
2022-08-22T13:29:39.660Z,-20967.75
2022-08-22T13:32:17.374Z,-20969.41
2022-08-22T13:34:51.904Z,-20958.19
2022-08-22T13:37:24.472Z,-20939.03
2022-08-22T13:39:56.681Z,-20949.34
2022-08-22T13:42:30.256Z,-20967.00
2022-08-22T13:45:04.755Z,-20967.31
2022-08-22T13:47:39.749Z,-20968.66
2022-08-22T13:50:15.129Z,-20986.31
2022-08-22T13:52:49.267Z,-20985.56
2022-08-22T13:55:29.431Z,-20989.28
2022-08-22T13:58:06.834Z,-20979.13
2022-08-22T14:01:17.731Z,-20975.84
2022-08-22T14:03:49.723Z,-20975.84
2022-08-22T14:06:35.367Z,-20990.63
2022-08-22T14:09:15.367Z,-20996.75
2022-08-22T14:11:49.534Z,-20981.81
2022-08-22T14:14:23.852Z,-20999.44
2022-08-22T14:16:56.791Z,-20990.78
2022-08-22T14:19:32.278Z,-20982.41
2022-08-22T14:22:32.045Z,-20961.78
2022-08-22T14:25:07.215Z,-20955.19
2022-08-22T14:27:39.771Z,-20965.66
2022-08-22T14:30:15.631Z,-20963.72
2022-08-22T14:32:48.211Z,-20956.09
2022-08-22T14:35:35.382Z,-20926.31
2022-08-22T14:38:30.147Z,-20954.28
2022-08-22T14:41:03.352Z,-20963.56
2022-08-22T14:43:52.350Z,-20975.53
2022-08-22T14:46:26.738Z,-20957.00
2022-08-22T14:49:24.820Z,-20947.41
2022-08-22T14:52:00.311Z,-20938.72
2022-08-22T14:54:30.917Z,-20936.94
2022-08-22T14:57:01.195Z,-20946.38
2022-08-22T14:59:40.971Z,-20944.56
2022-08-22T15:02:13.858Z,-20963.41
2022-08-22T15:04:45.440Z,-20955.78
2022-08-22T15:07:23.712Z,-20966.41
2022-08-22T15:09:57.209Z,-20952.06
2022-08-22T15:12:28.648Z,-20945.91
2022-08-22T15:14:59.523Z,-20952.06
2022-08-22T15:17:39.050Z,-20944.41
2022-08-22T15:20:27.889Z,-20950.41
2022-08-22T15:22:59.045Z,-20933.50
2022-08-22T15:25:31.286Z,-20920.31
2022-08-22T15:28:05.246Z,-20927.34
2022-08-22T15:30:44.299Z,-20927.34
2022-08-22T15:33:17.649Z,-20926.31
2022-08-22T15:35:48.122Z,-20922.69
2022-08-22T15:38:29.163Z,-20904.72
2022-08-22T15:41:25.294Z,-20907.25
2022-08-22T15:44:08.382Z,-20908.47
2022-08-22T15:46:45.926Z,-20904.56
2022-08-22T15:49:28.672Z,-20893.31
2022-08-22T15:52:11.141Z,-20899.16
2022-08-22T15:55:07.681Z,-20903.50
2022-08-22T15:57:38.867Z,-20916.09
2022-08-22T16:00:28.056Z,-20913.88
2022-08-22T16:02:59.060Z,-20912.38
2022-08-22T16:05:38.300Z,-20907.72
2022-08-22T16:08:09.267Z,-20887.31
2022-08-22T16:10:40.909Z,-20870.97
2022-08-22T16:13:25.513Z,-20880.28
2022-08-22T16:16:01.098Z,-20885.38
2022-08-22T16:19:05.961Z,-20876.34
2022-08-22T16:22:16.387Z,-20880.28
2022-08-22T16:25:06.738Z,-20887.31
2022-08-22T16:27:52.137Z,-20888.50
2022-08-22T16:30:33.501Z,-20890.91
2022-08-22T16:33:04.400Z,-20896.47
2022-08-22T16:36:25.678Z,-20894.38
2022-08-22T16:38:57.665Z,-20891.66
2022-08-22T16:41:40.283Z,-20885.81
2022-08-22T16:44:41.630Z,-20879.38
2022-08-22T16:47:18.317Z,-20872.16
2022-08-22T16:50:05.142Z,-20874.72
2022-08-22T16:53:04.734Z,-20876.66
2022-08-22T16:55:44.764Z,-20874.88
2022-08-22T16:58:29.563Z,-20871.56
2022-08-22T17:01:14.401Z,-20862.84
2022-08-22T17:03:51.934Z,-20860.31
2022-08-22T17:06:39.261Z,-20854.75
2022-08-22T17:09:22.078Z,-20851.28
2022-08-22T17:11:59.359Z,-20848.44
2022-08-22T17:14:41.598Z,-20848.13
2022-08-22T17:17:33.521Z,-20850.84
2022-08-22T17:20:12.643Z,-20850.25
2022-08-22T17:22:53.274Z,-20844.81
2022-08-22T17:25:29.237Z,-20842.88
2022-08-22T17:28:12.735Z,-20844.22
2022-08-22T17:30:53.827Z,-20846.63
2022-08-22T17:33:35.871Z,-20843.63
2022-08-22T17:36:26.231Z,-20840.47
2022-08-22T17:39:04.866Z,-20838.38
2022-08-22T17:41:41.990Z,-20834.16
2022-08-22T17:44:18.685Z,-20835.81
2022-08-22T17:46:53.285Z,-20821.69
2022-08-22T17:49:26.758Z,-20824.09
2022-08-22T17:52:01.403Z,-20812.06
2022-08-22T17:54:40.326Z,-20801.81
2022-08-22T17:57:13.169Z,-20795.19
2022-08-22T17:59:50.231Z,-20786.75
2022-08-22T18:02:23.641Z,-20777.44
2022-08-22T18:05:01.292Z,-20767.34
2022-08-22T18:07:41.392Z,-20754.38
2022-08-22T18:10:21.728Z,-20746.69
2022-08-22T18:13:03.486Z,-20739.44
2022-08-22T18:15:42.970Z,-20730.41
2022-08-22T18:18:19.966Z,-20722.69
2022-08-22T18:20:54.126Z,-20720.13
2022-08-22T18:23:35.585Z,-20713.50
2022-08-22T18:26:21.614Z,-20711.09
2022-08-22T18:28:56.225Z,-20702.94
2022-08-22T18:31:39.297Z,-20698.84
2022-08-22T18:34:20.129Z,-20694.03
2022-08-22T18:36:55.466Z,-20689.34
2022-08-22T18:39:27.229Z,-20684.06
2022-08-22T18:42:04.833Z,-20676.94
2022-08-22T18:44:37.958Z,-20672.09
2022-08-22T18:47:14.984Z,-20668.47
2022-08-22T18:49:48.293Z,-20663.94
2022-08-22T18:52:21.370Z,-20661.69
2022-08-22T18:55:12.530Z,-20659.25
2022-08-22T18:58:05.248Z,-20659.25
2022-08-22T19:00:49.330Z,-20654.28
2022-08-22T19:03:35.893Z,-20648.53
2022-08-22T19:06:35.498Z,-20643.38
2022-08-22T19:09:25.698Z,-20639.44
2022-08-22T19:12:01.617Z,-20633.38
2022-08-22T19:15:07.385Z,-20630.38
2022-08-22T19:17:59.534Z,-20630.66
2022-08-22T19:20:48.657Z,-20625.81
2022-08-22T19:23:43.402Z,-20621.88
2022-08-22T19:26:47.623Z,-20616.44
2022-08-22T19:29:55.550Z,-20615.22
2022-08-22T19:33:05.921Z,-20612.19
2022-08-22T19:35:44.523Z,-20606.59
2022-08-22T19:38:33.249Z,-20606.75
2022-08-22T19:41:02.974Z,-20602.19
2022-08-22T19:43:37.888Z,-20599.78
2022-08-22T19:46:09.573Z,-20596.75
2022-08-22T19:48:47.321Z,-20597.22
2022-08-22T19:51:27.449Z,-20593.41
2022-08-22T19:54:16.841Z,-20595.22
2022-08-22T19:57:05.618Z,-20588.56
2022-08-22T19:59:50.746Z,-20587.97
2022-08-22T20:02:31.779Z,-20587.66
2022-08-22T20:05:21.326Z,-20584.78
2022-08-22T20:08:06.399Z,-20579.47
2022-08-22T20:10:43.720Z,-20580.06
2022-08-22T20:13:21.933Z,-20580.53
2022-08-22T20:16:13.330Z,-20575.84
2022-08-22T20:19:07.224Z,-20574.00
2022-08-22T20:21:41.924Z,-20570.38
2022-08-22T20:24:15.221Z,-20568.56
2022-08-22T20:27:10.090Z,-20567.03
2022-08-22T20:29:36.908Z,-20570.53
2022-08-22T20:32:07.087Z,-20567.34
2022-08-22T20:34:39.321Z,-20564.00
2022-08-22T20:37:35.882Z,-20564.00
2022-08-22T20:40:03.942Z,-20557.63
2022-08-22T20:42:34.815Z,-20557.03
2022-08-22T20:45:12.436Z,-20554.59
2022-08-22T20:47:41.358Z,-20550.19
2022-08-22T20:50:11.838Z,-20550.34
2022-08-22T20:52:54.338Z,-20547.94
2022-08-22T20:55:31.539Z,-20547.63
2022-08-22T20:58:03.485Z,-20546.88
2022-08-22T21:00:35.361Z,-20544.75
2022-08-22T21:03:08.602Z,-20539.72
2022-08-22T21:05:39.338Z,-20536.84
2022-08-22T21:08:09.190Z,-20540.03
2022-08-22T21:10:57.232Z,-20538.66
2022-08-22T21:13:27.755Z,-20535.78
2022-08-22T21:15:58.109Z,-20537.00
2022-08-22T21:18:31.873Z,-20542.16
2022-08-22T21:21:08.250Z,-20541.09
2022-08-22T21:23:47.586Z,-20545.94
2022-08-22T21:26:26.666Z,-20546.41
2022-08-22T21:28:58.863Z,-20546.41
2022-08-22T21:31:29.746Z,-20550.19
2022-08-22T21:33:58.165Z,-20552.78
2022-08-22T21:36:29.594Z,-20555.97
2022-08-22T21:39:00.805Z,-20553.69
2022-08-22T21:41:38.515Z,-20551.25
2022-08-22T21:44:28.645Z,-20548.84
2022-08-22T21:46:57.855Z,-20543.06
2022-08-22T21:49:29.230Z,-20540.78
2022-08-22T21:51:57.440Z,-20539.13
2022-08-22T21:54:41.505Z,-20542.00
2022-08-22T21:57:19.957Z,-20541.25
2022-08-22T21:59:51.844Z,-20540.94
2022-08-22T22:02:31.297Z,-20542.47
2022-08-22T22:05:00.263Z,-20540.63
2022-08-22T22:07:28.802Z,-20541.25
2022-08-22T22:09:57.051Z,-20542.75
2022-08-22T22:12:26.122Z,-20550.06
2022-08-22T22:14:53.845Z,-20552.78
2022-08-22T22:17:21.705Z,-20555.22
2022-08-22T22:19:49.500Z,-20543.22
2022-08-22T22:22:17.817Z,-20549.13
2022-08-22T22:24:45.484Z,-20547.16
2022-08-22T22:27:16.953Z,-20544.59
2022-08-22T22:29:46.234Z,-20539.72
2022-08-22T22:32:13.917Z,-20541.25
2022-08-22T22:34:41.681Z,-20538.81
2022-08-22T22:37:11.811Z,-20543.97
2022-08-22T22:39:39.944Z,-20542.91
2022-08-22T22:42:09.789Z,-20542.00
2022-08-22T22:44:37.609Z,-20538.38
2022-08-22T22:47:06.818Z,-20538.81
2022-08-22T22:49:34.604Z,-20535.19
2022-08-22T22:52:02.706Z,-20533.97
2022-08-22T22:54:32.198Z,-20531.53
2022-08-22T22:57:01.956Z,-20534.56
2022-08-22T22:59:29.596Z,-20537.59
2022-08-22T23:02:04.136Z,-20538.06
2022-08-22T23:04:35.088Z,-20540.78
2022-08-22T23:07:03.773Z,-20541.56
2022-08-22T23:09:37.886Z,-20544.59
2022-08-22T23:12:07.489Z,-20545.19
2022-08-22T23:14:35.668Z,-20549.13
2022-08-22T23:17:03.813Z,-20547.16
2022-08-22T23:19:33.606Z,-20555.34
2022-08-22T23:22:01.846Z,-20560.38
2022-08-22T23:24:31.062Z,-20559.31
2022-08-22T23:26:59.451Z,-20561.72
2022-08-22T23:29:27.691Z,-20572.34
2022-08-22T23:31:58.029Z,-20575.06
2022-08-22T23:34:28.831Z,-20577.03
2022-08-22T23:37:00.175Z,-20577.34
2022-08-22T23:39:30.302Z,-20575.53
2022-08-22T23:41:58.899Z,-20575.22
2022-08-22T23:44:30.458Z,-20572.50
2022-08-22T23:46:58.195Z,-20571.59
2022-08-22T23:49:26.331Z,-20565.53
2022-08-22T23:51:54.102Z,-20561.28
2022-08-22T23:54:23.724Z,-20557.34
2022-08-22T23:56:53.670Z,-20559.31
2022-08-22T23:59:24.599Z,-20553.09
